• Join FlightAware (Why Join?)
  • Login
  • US Flag 
12:02AM EST


 

Airport Tracker/Info


-or-


 

Live Flight TrackerFlight Track Log ✈ PDT4207 ✈ 03-Mar-2014 ✈ KPHL - KBGM

Flight Track Log - Related Links

Times and Time Zones

All times are in EST time to prevent confusion due to time zone crossing. See the PDT4207 flight status page for this flight to view local times or setup timezone preferences in your user account.

Time Position Orientation Groundspeed Altitude Reporting Facility
EST Latitude Longitude Course Direction KTS MPH feet Rate Location/Type
09:38PM 39.8833 -75.2333 347° North 98 113 800  Level Philadelphia TRACON
09:39PM 39.9000 -75.2667 303° West 134 154 1,700 1,380 Climbing Philadelphia TRACON
09:40PM 39.9000 -75.3333 270° West 169 194 3,200 1,620 Climbing Philadelphia TRACON
09:41PM 40.0653 -75.2999 347° North  Level Estimated
09:41PM 39.9167 -75.3833 294° West 181 208 5,000  Level Philadelphia TRACON
09:42PM 40.1296 -75.3197 347° North  Level Estimated
09:42PM 39.9167 -75.4500 270° West 172 198 6,800  Level Philadelphia TRACON
09:43PM 40.1940 -75.3395 347° North  Level Estimated
09:43PM 39.9667 -75.4833 333° Northwest 170 196 8,400  Level Philadelphia TRACON
09:44PM 40.0167 -75.4833 360° North 197 227 9,500 1,500 Climbing Philadelphia TRACON
09:45PM 40.0622 -75.5061 339° North 182 209 11,600 1,140 Climbing New York Center
09:46PM 40.1172 -75.5269 344° North 198 228 12,000 180 Climbing New York Center
09:47PM 40.1800 -75.5453 347° North 230 265 12,000  Level New York Center
09:48PM 40.2467 -75.5569 352° North 235 270 12,000  Level New York Center
09:49PM 40.3147 -75.5717 351° North 236 272 12,000  Level New York Center
09:50PM 40.3767 -75.5844 351° North 236 272 12,000  Level New York Center
09:51PM 40.4439 -75.5986 351° North 235 270 12,000  Level New York Center
09:52PM 40.5119 -75.6125 351° North 235 270 12,000  Level New York Center
09:53PM 40.5750 -75.6253 351° North 235 270 12,000  Level New York Center
09:54PM 40.6436 -75.6397 351° North 236 272 12,000  Level New York Center
09:55PM 40.7119 -75.6544 351° North 236 272 12,000  Level New York Center
09:56PM 40.7747 -75.6681 351° North 236 272 12,000  Level New York Center
09:57PM 40.8417 -75.6825 351° North 235 270 12,000  Level New York Center
09:58PM 40.9042 -75.6967 350° North 235 270 12,000  Level New York Center
09:59PM 40.9722 -75.7111 351° North 235 270 12,000  Level New York Center
10:00PM 41.0369 -75.7239 352° North 237 273 12,000  Level New York Center
10:01PM 41.1056 -75.7392 350° North 237 273 12,000  Level New York Center
10:02PM 41.1747 -75.7542 351° North 238 274 12,000  Level New York Center
10:03PM 41.2392 -75.7678 351° North 239 275 12,100  Climbing New York Center
10:04PM 41.3039 -75.7819 351° North 239 275 12,100  Level New York Center
10:05PM 41.3700 -75.7969 350° North 240 276 12,100  Level New York Center
10:06PM 41.4353 -75.8094 352° North 240 276 12,100 -60 Level New York Center
10:07PM 41.5008 -75.8247 350° North 240 276 12,000 -600 Descending New York Center
10:08PM 41.5786 -75.8411 351° North 253 291 10,900 -1,140 Descending New York Center
10:09PM 41.6522 -75.8572 351° North 254 292 9,800 -900 Descending New York Center
10:10PM 41.7186 -75.8714 351° North 253 291 9,100 -540 Descending New York Center
10:11PM 41.7881 -75.8875 350° North 243 280 8,800 -840 Descending New York Center
10:12PM 41.8594 -75.8981 354° North 244 281 7,500 -1,260 Descending New York Center
10:13PM 41.9247 -75.9025 357° North 244 281 6,300 -1,320 Descending New York Center
10:14PM 41.9933 -75.9089 356° North 238 274 4,900 -1,140 Descending New York Center
10:15PM 42.0539 -75.9092 360° North 232 267 4,000 -480 Descending New York Center
10:16PM 42.0936 -75.9025 North 175 201 4,000 -240 Level New York Center
10:17PM 42.1261 -75.9064 355° North 137 158 3,600 -600 Descending New York Center
10:18PM 42.1522 -75.9297 326° Northwest 120 138 2,900 -720 Descending New York Center
10:19PM 42.1775 -75.9536 325° Northwest 118 136 2,200 -540 Descending New York Center
10:20PM 42.2072 -75.9778 329° Northwest 114 131 1,900 -300 Descending New York Center